Date,TemperatureHighF,TemperatureAvgF,TemperatureLowF,DewpointHighF,DewpointAvgF,DewpointLowF,HumidityHigh,HumidityAvg,HumidityLow,PressureMaxIn,PressureMinIn,WindSpeedMaxMPH,WindSpeedAvgMPH,GustSpeedMaxMPH,PrecipitationSumIn
2013-5-1,48,35,29,35,27,22,82,72,60,28.39,27.78,23,6,23,0.00
2013-5-2,36,30,26,23,20,18,77,68,56,28.45,28.36,16,5,16,0.00
2013-5-3,30,27,24,28,23,19,94,84,73,28.37,28.16,15,4,15,0.07
2013-5-4,34,30,26,33,29,25,96,95,93,28.18,28.13,8,2,8,0.08
2013-5-5,51,39,31,44,36,30,97,90,74,28.17,28.07,9,1,9,0.00
2013-5-6,67,50,32,50,42,30,95,75,52,28.07,28.00,13,2,13,0.00
2013-5-7,72,56,34,49,42,31,91,63,42,28.04,27.95,14,2,15,0.00
2013-5-8,73,59,45,53,45,39,96,62,37,28.04,27.94,13,1,13,0.21
2013-5-9,54,43,32,42,30,18,95,65,33,28.17,28.03,15,3,17,0.00
2013-5-10,53,38,26,27,19,8,85,48,27,28.17,27.82,11,2,13,0.00
2013-5-11,37,32,30,34,28,22,94,85,64,28.00,27.81,27,8,29,0.10
2013-5-12,41,32,24,25,21,18,89,64,42,28.04,28.00,21,5,21,0.01
2013-5-13,50,38,20,28,22,18,94,57,33,28.03,27.69,17,2,17,0.00
2013-5-14,64,52,35,46,38,28,78,59,45,27.70,27.38,19,2,21,0.00
2013-5-15,70,58,48,47,42,37,81,56,32,27.81,27.48,24,7,29,0.01
2013-5-16,67,51,31,38,34,29,95,57,29,28.03,27.80,13,2,13,0.00
2013-5-17,64,52,43,40,37,34,76,57,38,28.11,28.03,13,3,14,0.00
2013-5-18,53,50,47,52,46,35,98,88,64,28.05,27.86,13,2,13,0.10
2013-5-19,57,51,48,56,50,47,98,96,94,27.89,27.83,22,3,26,0.38
2013-5-20,50,47,44,50,46,43,97,96,95,27.86,27.69,28,9,31,0.75
2013-5-21,44,42,41,43,41,40,98,97,97,27.83,27.72,21,5,21,0.47
2013-5-22,63,50,42,43,39,31,98,70,31,28.07,27.81,20,4,20,0.04
2013-5-23,55,43,32,34,29,26,81,59,38,28.28,28.07,16,4,16,0.00
2013-5-24,63,50,35,37,31,26,72,50,31,28.33,28.21,13,2,13,0.00
2013-5-25,63,52,41,37,33,28,72,49,35,28.29,28.24,14,2,14,0.00
2013-5-26,66,53,39,42,33,28,67,47,33,28.28,28.15,15,2,15,0.00
2013-5-27,66,56,42,43,36,27,68,49,39,28.15,27.92,17,3,17,0.00
2013-5-28,67,55,37,44,39,34,94,58,36,27.92,27.72,16,2,19,0.00
2013-5-29,76,62,46,58,52,40,88,69,51,27.80,27.73,13,2,15,0.05
2013-5-30,71,64,58,66,62,58,98,95,83,27.75,27.63,14,3,17,0.40
2013-5-31,75,63,54,62,58,51,98,84,54,27.65,27.58,25,3,25,0.03